Time;durP1;ratioP1;P1;durP2;ratioP2;P2;SDS_P1;SDS_P2;PMS_P1;PMS_P2;Temp;Humidity;BMP_temperature;BMP_pressure;BME280_temperature;BME280_humidity;BME280_pressure;Samples;Min_cycle;Max_cycle;Signal;HPM_P1;HPM_P2
2023/08/17 00:01:32;;;;;;;12.45;6.80;;;;;;;23.96;64.46;100032.19;9474635;26;37357;-84
2023/08/17 00:05:49;;;;;;;12.70;6.10;;;;;;;23.73;65.41;100031.91;9474394;26;39480;-86
2023/08/17 00:10:05;;;;;;;9.95;6.18;;;;;;;23.68;65.64;100026.59;9474304;26;39991;-86
2023/08/17 00:14:22;;;;;;;9.70;6.37;;;;;;;23.78;65.37;100035.25;9474053;26;38632;-87
2023/08/17 00:18:38;;;;;;;13.80;6.32;;;;;;;23.88;65.03;100022.81;9474312;26;37857;-87
2023/08/17 00:22:54;;;;;;;12.77;7.70;;;;;;;23.81;65.41;100017.06;9453644;26;40448;-87
2023/08/17 00:27:11;;;;;;;15.65;7.12;;;;;;;23.86;65.20;100018.78;9474034;26;40646;-87
2023/08/17 00:31:27;;;;;;;11.60;7.60;;;;;;;23.83;65.18;100013.94;9474175;26;38844;-87
2023/08/17 00:35:45;;;;;;;12.82;7.55;;;;;;;23.89;64.95;100018.09;9453702;26;37072;-87
2023/08/17 00:40:01;;;;;;;12.70;7.47;;;;;;;23.70;65.72;100010.34;9474134;26;41460;-87
2023/08/17 00:44:18;;;;;;;15.18;7.18;;;;;;;23.69;65.60;100017.91;9473915;26;40712;-87
2023/08/17 00:48:34;;;;;;;14.35;7.35;;;;;;;23.59;65.60;100010.88;9474152;26;38031;-87
2023/08/17 00:52:53;;;;;;;15.20;7.97;;;;;;;23.56;65.86;100007.97;9453792;26;36990;-86
2023/08/17 00:57:09;;;;;;;19.73;7.22;;;;;;;23.75;65.04;100016.50;9473960;26;38375;-87
2023/08/17 01:01:25;;;;;;;12.85;7.30;;;;;;;23.65;65.36;100021.75;9453546;26;39947;-87
2023/08/17 01:05:42;;;;;;;18.62;7.18;;;;;;;23.62;65.37;100014.91;9453157;26;38796;-87
2023/08/17 01:09:59;;;;;;;11.70;6.95;;;;;;;23.70;65.27;100004.78;9474255;26;37110;-87
2023/08/17 01:14:32;;;;;;;16.05;7.87;;;;;;;23.56;65.73;100008.81;9453519;26;40130;-87
2023/08/17 01:18:50;;;;;;;10.80;7.60;;;;;;;23.54;65.68;100004.75;9472862;26;40778;-87
2023/08/17 01:23:07;;;;;;;14.73;6.68;;;;;;;23.66;65.34;100009.44;9453402;26;38366;-87
2023/08/17 01:27:24;;;;;;;17.30;7.95;;;;;;;23.51;65.94;100013.78;9473408;26;37974;-87
2023/08/17 01:31:47;;;;;;;15.90;7.60;;;;;;;23.54;65.77;100013.91;9473626;26;39331;-86
2023/08/17 01:36:21;;;;;;;11.43;7.60;;;;;;;23.46;65.90;100005.69;9455985;26;39898;-86
2023/08/17 01:40:38;;;;;;;11.73;7.68;;;;;;;23.53;65.80;100012.28;9475272;26;38546;-87
2023/08/17 01:44:55;;;;;;;15.27;8.00;;;;;;;23.48;65.96;99998.63;9455117;26;36838;-86
2023/08/17 01:49:11;;;;;;;11.68;7.10;;;;;;;23.52;65.77;99999.53;9475292;26;39260;-86
2023/08/17 01:53:27;;;;;;;15.68;7.60;;;;;;;23.38;66.45;99993.56;9475058;26;40743;-86
2023/08/17 01:57:44;;;;;;;14.35;7.50;;;;;;;23.59;65.63;99988.63;9475184;26;37951;-86
2023/08/17 02:02:00;;;;;;;10.10;6.95;;;;;;;23.48;65.75;99997.84;9454881;26;38055;-87
2023/08/17 02:06:16;;;;;;;14.15;7.62;;;;;;;23.41;65.69;99998.44;9475065;26;39336;-87
2023/08/17 02:10:32;;;;;;;13.80;7.60;;;;;;;23.44;65.18;100008.84;9475180;26;39611;-86
2023/08/17 02:14:49;;;;;;;13.18;8.43;;;;;;;23.32;65.39;100006.09;9474491;26;37962;-86
2023/08/17 02:19:05;;;;;;;13.30;7.87;;;;;;;23.31;65.20;100005.28;9474868;26;37929;-87
2023/08/17 02:23:21;;;;;;;14.30;7.85;;;;;;;23.34;64.89;100010.16;9474952;26;39292;-87
2023/08/17 02:27:38;;;;;;;12.70;7.80;;;;;;;23.30;65.04;100008.41;9474713;26;40769;-86
2023/08/17 02:31:54;;;;;;;15.35;7.30;;;;;;;23.53;64.03;100011.50;9474905;26;37885;-87
2023/08/17 02:36:10;;;;;;;14.07;7.43;;;;;;;23.33;64.65;100013.28;9474909;26;37205;-86
2023/08/17 02:40:26;;;;;;;13.43;7.37;;;;;;;23.29;64.67;100018.75;9475102;26;38940;-87
2023/08/17 02:44:43;;;;;;;16.70;8.35;;;;;;;23.28;64.87;100028.25;9474610;26;40517;-86
2023/08/17 02:48:59;;;;;;;13.10;8.30;;;;;;;23.31;65.07;100027.53;9474376;26;38912;-85
2023/08/17 02:53:15;;;;;;;12.88;7.75;;;;;;;23.12;66.10;100019.03;9474728;26;37242;-87
2023/08/17 02:57:31;;;;;;;12.80;8.27;;;;;;;23.16;66.12;100014.38;9474783;26;40165;-87
2023/08/17 03:01:48;;;;;;;13.32;8.00;;;;;;;23.30;65.71;100005.66;9474807;26;40695;-86
2023/08/17 03:06:05;;;;;;;13.30;8.63;;;;;;;23.23;66.00;99998.72;9474786;26;38730;-87
2023/08/17 03:10:21;;;;;;;13.07;8.27;;;;;;;23.50;64.86;100001.88;9474562;26;37225;-87
2023/08/17 03:14:37;;;;;;;14.50;8.00;;;;;;;23.53;64.66;100003.94;9474541;26;39511;-87
2023/08/17 03:18:53;;;;;;;17.87;8.77;;;;;;;23.40;65.15;100000.41;9474755;26;39901;-87
2023/08/17 03:23:10;;;;;;;11.77;8.07;;;;;;;23.14;66.33;100000.81;9474574;26;38706;-87
2023/08/17 03:27:26;;;;;;;12.35;7.25;;;;;;;23.13;66.39;99998.38;9474350;26;37182;-87
2023/08/17 03:31:43;;;;;;;14.77;8.20;;;;;;;23.08;66.51;99996.69;9474448;26;39027;-86
2023/08/17 03:35:59;;;;;;;24.02;8.57;;;;;;;23.05;66.69;99997.34;9474849;26;40913;-86
2023/08/17 03:40:15;;;;;;;14.25;7.97;;;;;;;23.09;66.40;99992.72;9474591;26;38708;-86
2023/08/17 03:44:31;;;;;;;12.68;7.85;;;;;;;23.04;66.61;99990.97;9474600;26;37075;-86
2023/08/17 03:48:48;;;;;;;13.57;7.78;;;;;;;23.07;66.60;99995.03;9474450;26;39356;-86
2023/08/17 03:53:04;;;;;;;13.90;7.72;;;;;;;23.11;66.43;100009.87;9474478;26;39961;-86
2023/08/17 03:57:20;;;;;;;12.50;8.10;;;;;;;23.04;66.66;99998.50;9473945;26;38478;-87
2023/08/17 04:01:36;;;;;;;15.73;8.32;;;;;;;22.97;67.17;99993.53;9474276;26;36900;-86
2023/08/17 04:05:53;;;;;;;12.73;8.05;;;;;;;23.12;66.54;99994.81;9474434;26;40145;-86
2023/08/17 04:10:09;;;;;;;14.50;8.45;;;;;;;23.12;66.63;99999.56;9474376;26;40112;-86
2023/08/17 04:14:26;;;;;;;17.30;8.68;;;;;;;23.14;66.35;99994.47;9473938;26;38769;-85
2023/08/17 04:18:42;;;;;;;13.60;8.60;;;;;;;22.64;68.58;99993.69;9474031;26;37960;-86
2023/08/17 04:22:58;;;;;;;16.50;8.65;;;;;;;22.74;68.36;99998.78;9474232;26;39316;-86
2023/08/17 04:27:15;;;;;;;17.12;8.20;;;;;;;22.93;67.85;100005.72;9474103;26;40563;-85
2023/08/17 04:31:31;;;;;;;13.55;8.85;;;;;;;22.95;67.92;100000.59;9474118;26;38902;-84
2023/08/17 04:35:48;;;;;;;14.63;8.30;;;;;;;22.99;67.92;100004.28;9474098;26;37114;-85
2023/08/17 04:40:05;;;;;;;17.90;9.00;;;;;;;23.03;68.06;100000.47;9474277;26;39367;-85
2023/08/17 04:44:21;;;;;;;14.10;8.48;;;;;;;22.94;68.94;99998.97;9473988;26;40803;-85
2023/08/17 04:48:37;;;;;;;12.75;8.40;;;;;;;23.17;68.18;100002.91;9474098;26;38745;-85
2023/08/17 04:52:53;;;;;;;12.35;7.80;;;;;;;23.25;68.04;100001.16;9473786;26;37837;-86
2023/08/17 04:57:10;;;;;;;16.87;8.40;;;;;;;23.38;67.59;100004.69;9473957;26;39402;-85
2023/08/17 05:01:26;;;;;;;11.48;7.75;;;;;;;23.50;66.87;100012.19;9473799;26;41181;-85
2023/08/17 05:05:43;;;;;;;15.50;8.30;;;;;;;23.42;67.39;100011.16;9473648;26;38631;-84
2023/08/17 05:09:59;;;;;;;12.35;8.10;;;;;;;23.39;67.97;100011.88;9475171;26;37224;-84
2023/08/17 05:14:16;;;;;;;11.80;8.48;;;;;;;23.55;67.55;100011.94;9475114;26;39442;-84
2023/08/17 05:18:32;;;;;;;13.27;9.07;;;;;;;23.19;68.92;100020.03;9475277;26;40071;-73
2023/08/17 05:22:48;;;;;;;14.63;8.75;;;;;;;23.27;67.14;100025.81;9475284;26;38547;-74
2023/08/17 05:27:05;;;;;;;15.25;8.68;;;;;;;23.03;68.34;100027.47;9475218;26;38046;-74
2023/08/17 05:31:21;;;;;;;14.35;8.25;;;;;;;23.31;67.36;100027.53;9475305;26;39410;-75
2023/08/17 05:35:37;;;;;;;13.23;7.80;;;;;;;23.35;67.46;100030.44;9475087;26;40773;-77
2023/08/17 05:39:54;;;;;;;18.37;8.45;;;;;;;23.44;67.19;100018.00;9475167;26;38773;-77
2023/08/17 05:44:10;;;;;;;13.35;8.45;;;;;;;23.56;67.14;100017.16;9475178;26;37243;-77
2023/08/17 05:48:26;;;;;;;17.15;8.68;;;;;;;23.84;66.62;100015.56;9474923;26;39560;-77
2023/08/17 05:52:43;;;;;;;12.95;7.75;;;;;;;23.88;66.67;100020.03;9474839;26;39603;-78
2023/08/17 05:56:59;;;;;;;16.42;8.10;;;;;;;23.99;66.18;100023.09;9474888;26;37777;-73
2023/08/17 06:01:15;;;;;;;12.95;8.18;;;;;;;24.15;65.71;100026.72;9474912;26;37208;-73
2023/08/17 06:05:31;;;;;;;11.32;8.07;;;;;;;24.13;65.11;100022.69;9475083;26;39321;-72
2023/08/17 06:09:48;;;;;;;17.87;9.68;;;;;;;24.33;64.89;100020.81;9475004;26;40048;-74
2023/08/17 06:14:04;;;;;;;14.18;9.35;;;;;;;24.38;64.75;100029.69;9474633;26;38238;-72
2023/08/17 06:18:21;;;;;;;16.12;9.88;;;;;;;24.49;65.06;100023.56;9474935;26;37144;-72
2023/08/17 06:22:37;;;;;;;17.48;9.15;;;;;;;24.58;65.51;100015.88;9475127;26;39412;-72
2023/08/17 06:26:54;;;;;;;15.73;9.73;;;;;;;24.51;66.46;100015.69;9474592;26;39979;-71
2023/08/17 06:31:10;;;;;;;20.70;9.85;;;;;;;24.42;68.22;100013.06;9474907;26;38086;-72
2023/08/17 06:35:26;;;;;;;18.92;11.00;;;;;;;24.80;66.66;100019.16;9474995;26;37953;-75
2023/08/17 06:39:42;;;;;;;16.33;10.05;;;;;;;24.43;65.24;100013.87;9474823;26;39042;-73
2023/08/17 06:43:59;;;;;;;16.20;10.18;;;;;;;24.26;64.79;100020.63;9474830;26;39668;-73
2023/08/17 06:48:15;;;;;;;14.10;9.63;;;;;;;24.43;63.99;100019.47;9474727;26;38171;-79
2023/08/17 06:52:31;;;;;;;16.62;9.68;;;;;;;24.70;62.42;100026.13;9474945;26;37171;-79
2023/08/17 06:56:47;;;;;;;17.17;9.80;;;;;;;24.89;62.96;100011.44;9474780;26;40113;-79
2023/08/17 07:01:03;;;;;;;16.25;9.30;;;;;;;24.33;64.93;100020.81;9474688;26;39826;-79
2023/08/17 07:05:20;;;;;;;12.57;8.75;;;;;;;24.86;63.58;100014.94;9474492;26;38063;-79
2023/08/17 07:09:36;;;;;;;18.77;9.43;;;;;;;25.20;63.49;100018.06;9474252;26;38023;-79
2023/08/17 07:13:52;;;;;;;16.67;8.73;;;;;;;25.36;63.28;100016.06;9473901;26;40571;-79
2023/08/17 07:18:08;;;;;;;17.25;9.35;;;;;;;25.65;62.84;100013.87;9474237;26;40697;-79
2023/08/17 07:22:25;;;;;;;16.35;8.48;;;;;;;25.67;62.27;100008.72;9473852;26;37808;-78
2023/08/17 07:26:41;;;;;;;14.93;8.25;;;;;;;25.71;62.48;100012.38;9474136;26;37221;-81
2023/08/17 07:30:58;;;;;;;17.27;8.32;;;;;;;25.88;61.52;100005.50;9453548;26;40003;-84
2023/08/17 07:35:14;;;;;;;13.77;8.23;;;;;;;25.93;61.79;100005.22;9472735;26;40047;-83
2023/08/17 07:39:30;;;;;;;10.90;7.07;;;;;;;26.26;61.42;100005.81;9473749;26;38012;-82
2023/08/17 07:43:46;;;;;;;10.60;6.87;;;;;;;26.71;61.40;99993.78;9474386;26;37923;-86
2023/08/17 07:48:03;;;;;;;9.95;6.53;;;;;;;27.28;59.23;99993.81;9474553;26;39053;-86
2023/08/17 07:52:19;;;;;;;11.35;6.68;;;;;;;27.47;55.54;100000.44;9474423;26;40121;-85
2023/08/17 07:56:35;;;;;;;11.05;6.55;;;;;;;27.40;53.56;100003.16;9474427;26;37970;-82
2023/08/17 08:00:52;;;;;;;15.10;6.30;;;;;;;27.36;52.00;100000.31;9474492;26;37208;-83
2023/08/17 08:05:08;;;;;;;11.90;7.12;;;;;;;27.54;53.17;99989.31;9474294;26;39439;-84
2023/08/17 08:09:24;;;;;;;8.20;6.15;;;;;;;27.49;52.33;99984.88;9474075;26;39679;-83
2023/08/17 08:13:41;;;;;;;12.90;6.50;;;;;;;27.38;52.55;99985.94;9474195;26;37705;-85
2023/08/17 08:17:57;;;;;;;10.63;6.62;;;;;;;27.32;51.92;99989.06;9474149;26;37923;-85
2023/08/17 08:22:13;;;;;;;10.27;6.18;;;;;;;27.62;51.68;99985.41;9474144;26;39542;-84
2023/08/17 08:26:29;;;;;;;11.02;6.85;;;;;;;27.85;51.51;99973.25;9473833;26;40098;-84
2023/08/17 08:30:46;;;;;;;11.05;6.65;;;;;;;27.70;51.52;99963.91;9473798;26;38798;-82
2023/08/17 08:35:02;;;;;;;9.48;5.95;;;;;;;27.96;52.21;99965.78;9473901;26;37850;-82
2023/08/17 08:39:19;;;;;;;10.20;6.22;;;;;;;28.51;50.99;99964.22;9474201;26;39854;-73
2023/08/17 08:43:35;;;;;;;9.73;5.90;;;;;;;28.79;49.61;99958.03;9473848;26;40911;-81
2023/08/17 08:47:52;;;;;;;10.35;5.93;;;;;;;28.95;48.63;99964.13;9473938;26;38816;-82
2023/08/17 08:52:12;;;;;;;11.98;5.47;;;;;;;29.30;48.37;99957.06;9453617;26;37227;-81
2023/08/17 08:56:31;;;;;;;8.68;5.57;;;;;;;29.42;46.26;99958.72;9473630;26;40109;-81
2023/08/17 09:00:48;;;;;;;11.43;5.75;;;;;;;29.41;47.16;99962.75;9453714;26;39875;-81
2023/08/17 09:05:06;;;;;;;9.02;5.57;;;;;;;29.16;46.11;99957.81;9473745;26;38051;-81
2023/08/17 09:09:23;;;;;;;9.30;6.00;;;;;;;29.51;45.75;99961.97;9453640;26;36147;-81
2023/08/17 09:13:44;;;;;;;9.95;5.62;;;;;;;29.42;44.46;99955.91;9451566;26;40211;-81
2023/08/17 09:18:01;;;;;;;8.65;5.68;;;;;;;28.92;46.41;99955.69;9472414;26;39669;-81
2023/08/17 09:22:43;;;;;;;11.95;5.35;;;;;;;29.27;47.31;99952.28;9472835;26;37963;-81
2023/08/17 09:27:00;;;;;;;8.03;4.67;;;;;;;29.56;45.12;99950.38;9454019;26;37993;-81
2023/08/17 09:31:20;;;;;;;9.20;4.43;;;;;;;29.63;42.93;99943.13;9474321;26;38830;-81
2023/08/17 09:35:36;;;;;;;7.35;4.30;;;;;;;29.31;42.54;99936.25;9473476;26;40066;-81
2023/08/17 09:39:53;;;;;;;6.10;4.00;;;;;;;29.66;43.78;99933.91;9472928;26;37710;-74
2023/08/17 09:44:11;;;;;;;5.57;3.78;;;;;;;29.59;41.81;99918.66;9473343;26;37979;-74
2023/08/17 09:48:27;;;;;;;9.18;4.25;;;;;;;29.57;43.17;99921.06;9453071;26;39412;-74
2023/08/17 09:52:52;;;;;;;7.35;3.83;;;;;;;29.98;43.09;99921.94;9472744;26;40094;-82
2023/08/17 09:57:09;;;;;;;7.82;3.35;;;;;;;29.82;40.67;99925.97;9475004;26;37953;-76
2023/08/17 10:01:29;;;;;;;4.75;3.10;;;;;;;30.09;40.95;99928.38;9455199;26;35745;-75
2023/08/17 10:05:47;;;;;;;6.87;3.60;;;;;;;29.57;40.06;99926.66;9455536;26;39137;-76
2023/08/17 10:10:06;;;;;;;4.95;3.28;;;;;;;30.22;39.41;99925.94;9455216;26;39868;-76
2023/08/17 10:14:26;;;;;;;7.12;3.12;;;;;;;30.52;39.11;99923.53;9474903;26;37007;-78
2023/08/17 10:19:15;;;;;;;5.85;3.10;;;;;;;30.42;38.55;99918.72;9474987;26;37094;-77
2023/08/17 10:23:32;;;;;;;4.25;3.10;;;;;;;31.07;38.55;99910.91;9449990;26;39268;-84
2023/08/17 10:28:00;;;;;;;6.70;3.22;;;;;;;30.79;38.06;99913.84;9474519;26;40868;-83
2023/08/17 10:32:16;;;;;;;6.07;3.33;;;;;;;30.95;38.27;99922.63;9474815;26;36896;-84
2023/08/17 10:36:33;;;;;;;7.87;3.97;;;;;;;30.89;38.65;99915.78;9474217;26;37661;-82
2023/08/17 10:41:12;;;;;;;4.30;2.87;;;;;;;31.04;37.04;99906.09;9475060;26;39347;-83
2023/08/17 10:45:37;;;;;;;5.47;3.30;;;;;;;30.95;39.17;99911.38;9475118;26;39932;-83
2023/08/17 10:50:05;;;;;;;6.68;3.28;;;;;;;30.60;38.73;99920.72;9474926;26;38007;-83
2023/08/17 10:54:35;;;;;;;5.90;3.67;;;;;;;30.71;37.71;99907.41;9474991;26;37125;-83
2023/08/17 10:58:52;;;;;;;7.22;3.28;;;;;;;30.82;38.24;99904.56;9457158;26;40128;-83
2023/08/17 11:03:16;;;;;;;5.35;3.50;;;;;;;30.93;39.27;99904.53;9474904;26;39730;-83
2023/08/17 11:07:40;;;;;;;7.68;3.50;;;;;;;31.51;39.17;99893.81;9474789;26;38606;-83
2023/08/17 11:11:59;;;;;;;6.53;3.08;;;;;;;31.86;38.98;99906.03;9474840;26;37892;-83
2023/08/17 11:16:19;;;;;;;8.18;3.42;;;;;;;32.51;34.47;99895.81;9474641;26;40091;-83
2023/08/17 11:20:37;;;;;;;8.32;4.68;;;;;;;32.23;35.17;99902.53;9474719;26;41151;-83
2023/08/17 11:24:54;;;;;;;4.72;3.22;;;;;;;31.90;35.72;99895.56;9454705;26;37718;-83
2023/08/17 11:29:11;;;;;;;7.90;3.55;;;;;;;31.77;36.04;99890.41;9474670;26;37913;-83
2023/08/17 11:33:28;;;;;;;8.07;3.40;;;;;;;31.34;37.00;99893.50;9474784;26;40237;-83
2023/08/17 11:37:45;;;;;;;7.60;3.12;;;;;;;31.08;38.69;99892.81;9474684;26;39662;-83
2023/08/17 11:42:01;;;;;;;6.50;3.83;;;;;;;31.10;37.69;99900.88;9474613;26;37940;-83
2023/08/17 11:46:18;;;;;;;6.05;3.28;;;;;;;31.05;36.70;99904.91;9474654;26;37171;-83
2023/08/17 11:50:35;;;;;;;4.60;3.12;;;;;;;30.51;37.99;99910.69;9474631;26;38979;-82
2023/08/17 11:55:00;;;;;;;6.75;3.28;;;;;;;30.18;38.24;99913.91;9474596;26;40575;-82
2023/08/17 11:59:19;;;;;;;9.93;5.50;;;;;;;30.26;38.94;99909.87;9474311;26;37626;-83
2023/08/17 12:03:36;;;;;;;6.75;3.45;;;;;;;30.33;38.91;99904.25;9474616;26;37772;-83
2023/08/17 12:07:53;;;;;;;6.18;3.47;;;;;;;30.55;37.28;99899.41;9474381;26;39445;-83
2023/08/17 12:12:10;;;;;;;6.78;3.87;;;;;;;30.02;38.10;99905.88;9474304;26;39992;-84
2023/08/17 12:16:27;;;;;;;6.72;4.00;;;;;;;29.94;38.72;99899.44;9473779;26;38602;-84
2023/08/17 12:20:43;;;;;;;10.23;6.78;;;;;;;30.16;38.73;99897.44;9474446;26;37283;-83
2023/08/17 12:25:03;;;;;;;7.90;3.35;;;;;;;30.45;38.43;99889.78;9474475;26;38611;-83
2023/08/17 12:29:19;;;;;;;5.28;3.15;;;;;;;31.05;36.95;99881.59;9474257;26;41463;-83
2023/08/17 12:33:36;;;;;;;8.10;3.70;;;;;;;31.06;35.99;99880.34;9474163;26;37843;-83
2023/08/17 12:37:53;;;;;;;6.22;3.00;;;;;;;31.04;37.81;99863.87;9474246;26;37163;-83
2023/08/17 12:42:09;;;;;;;6.95;3.55;;;;;;;31.37;36.05;99874.97;9474266;26;40918;-84
2023/08/17 12:46:27;;;;;;;7.28;3.00;;;;;;;31.67;36.09;99863.13;9474079;26;39996;-83
2023/08/17 12:50:47;;;;;;;8.88;3.15;;;;;;;31.93;36.81;99858.09;9474004;26;38758;-83
2023/08/17 12:55:04;;;;;;;9.40;3.33;;;;;;;32.11;34.77;99846.66;9474147;26;37121;-83
2023/08/17 12:59:20;;;;;;;6.90;3.00;;;;;;;31.68;36.21;99842.16;9474044;26;39490;-83
2023/08/17 13:03:36;;;;;;;5.97;3.15;;;;;;;31.93;36.00;99844.78;9474049;26;41006;-84
2023/08/17 13:07:53;;;;;;;7.28;3.50;;;;;;;32.73;35.34;99861.72;9473862;26;37614;-84
2023/08/17 13:12:09;;;;;;;4.32;2.70;;;;;;;33.16;36.55;99844.25;9473770;26;37186;-84
2023/08/17 13:16:25;;;;;;;3.85;2.65;;;;;;;33.70;37.63;99837.00;9467530;26;163752;-85
2023/08/17 13:20:42;;;;;;;6.70;3.25;;;;;;;33.82;36.12;99840.03;9473264;26;39940;-85
2023/08/17 13:24:58;;;;;;;7.95;2.90;;;;;;;34.12;37.83;99845.97;9473514;26;38784;-85
2023/08/17 13:29:14;;;;;;;4.75;3.10;;;;;;;34.50;36.12;99837.19;9474071;26;37279;-84
2023/08/17 13:33:30;;;;;;;5.82;3.50;;;;;;;33.91;37.05;99836.62;9472974;26;39275;-85
2023/08/17 13:37:53;;;;;;;5.40;3.00;;;;;;;34.65;36.12;99832.84;9451560;26;40747;-86
2023/08/17 13:42:10;;;;;;;6.80;3.37;;;;;;;34.56;35.73;99838.25;9474685;26;37961;-84
2023/08/17 13:46:26;;;;;;;7.18;3.60;;;;;;;34.53;35.89;99833.47;9474433;26;37968;-83
2023/08/17 13:50:42;;;;;;;5.65;3.33;;;;;;;34.28;35.50;99831.94;9474503;26;39412;-83
2023/08/17 13:55:00;;;;;;;5.70;3.10;;;;;;;33.23;37.79;99832.84;9454649;26;40519;-83
2023/08/17 13:59:20;;;;;;;6.45;3.08;;;;;;;33.80;36.37;99819.84;9474231;26;37586;-83
2023/08/17 14:03:37;;;;;;;4.97;3.15;;;;;;;34.09;36.56;99821.38;9475228;26;38241;-82
2023/08/17 14:07:54;;;;;;;10.13;3.40;;;;;;;34.45;35.71;99818.66;9474063;26;40398;-83
2023/08/17 14:12:11;;;;;;;6.05;3.15;;;;;;;34.33;36.48;99813.66;9474631;26;40925;-82
2023/08/17 14:16:27;;;;;;;6.95;3.28;;;;;;;34.08;35.86;99820.56;9474328;26;38007;-83
2023/08/17 14:20:44;;;;;;;9.07;3.53;;;;;;;33.75;36.78;99817.50;9474781;26;37223;-83
2023/08/17 14:25:02;;;;;;;4.93;3.03;;;;;;;34.28;36.67;99808.50;9474922;26;39097;-83
2023/08/17 14:29:19;;;;;;;4.82;3.30;;;;;;;34.63;34.34;99828.81;9473956;26;39506;-83
2023/08/17 14:33:35;;;;;;;6.82;3.12;;;;;;;34.85;35.35;99803.72;9474483;26;38805;-83
2023/08/17 14:37:52;;;;;;;11.05;2.92;;;;;;;35.01;33.80;99809.41;9474189;26;37685;-83
2023/08/17 14:42:08;;;;;;;10.98;4.40;;;;;;;33.76;35.90;99832.47;9474432;26;40172;-84
2023/08/17 14:46:26;;;;;;;12.70;4.60;;;;;;;32.21;43.41;99848.56;9474632;26;41007;-83
2023/08/17 14:50:43;;;;;;;9.10;3.78;;;;;;;32.02;46.38;99852.75;9473797;26;38590;-83
2023/08/17 14:55:00;;;;;;;8.00;4.10;;;;;;;31.43;49.32;99839.53;9474567;26;37630;-83
2023/08/17 14:59:17;;;;;;;5.03;3.92;;;;;;;31.21;51.19;99838.84;9474055;26;40230;-83
2023/08/17 15:03:33;;;;;;;11.73;4.00;;;;;;;31.05;51.15;99823.25;9474389;26;39902;-83
2023/08/17 15:07:51;;;;;;;8.10;4.05;;;;;;;31.16;53.34;99819.59;9473879;26;38107;-84
2023/08/17 15:12:08;;;;;;;6.00;4.07;;;;;;;31.55;50.81;99815.72;9474386;26;37871;-83
2023/08/17 15:16:27;;;;;;;11.57;4.68;;;;;;;31.85;49.82;99814.25;9474158;26;39891;-83
2023/08/17 15:20:45;;;;;;;7.80;3.58;;;;;;;31.41;53.14;99814.59;9473769;26;40830;-83
2023/08/17 15:25:04;;;;;;;8.20;4.40;;;;;;;31.00;51.52;99823.69;9474317;26;37918;-83
2023/08/17 15:29:21;;;;;;;7.12;4.40;;;;;;;30.64;49.02;99818.19;9473972;26;37899;-84
2023/08/17 15:33:41;;;;;;;7.15;4.10;;;;;;;29.88;50.23;99811.94;9474164;26;39974;-83
2023/08/17 15:38:11;;;;;;;7.85;5.47;;;;;;;29.49;47.38;99812.72;9474076;26;39983;-83
2023/08/17 15:42:28;;;;;;;10.48;4.75;;;;;;;29.09;48.39;99816.66;9453164;26;37892;-83
2023/08/17 15:46:45;;;;;;;12.70;6.57;;;;;;;28.82;49.15;99814.97;9474552;26;38373;-84
2023/08/17 15:51:01;;;;;;;9.45;4.65;;;;;;;28.59;49.29;99811.69;9473139;26;40148;-84
2023/08/17 15:55:18;;;;;;;6.35;4.25;;;;;;;28.33;50.22;99809.91;9473743;26;40794;-84
2023/08/17 15:59:35;;;;;;;6.00;4.00;;;;;;;28.28;49.53;99799.88;9474083;26;38731;-84
2023/08/17 16:03:52;;;;;;;7.72;4.22;;;;;;;28.01;50.49;99811.34;9473983;26;37843;-84
2023/08/17 16:08:12;;;;;;;7.30;4.40;;;;;;;27.90;51.61;99816.81;9474261;26;39176;-83
2023/08/17 16:12:29;;;;;;;8.23;4.20;;;;;;;27.73;50.34;99820.28;9473492;26;39562;-84
2023/08/17 16:16:45;;;;;;;6.90;4.22;;;;;;;27.68;50.68;99832.66;9474010;26;37935;-84
2023/08/17 16:21:02;;;;;;;7.82;4.78;;;;;;;27.55;51.46;99839.75;9473337;26;37969;-84
2023/08/17 16:25:19;;;;;;;9.70;4.72;;;;;;;27.51;52.20;99831.31;9473840;26;40665;-84
2023/08/17 16:29:35;;;;;;;8.80;4.75;;;;;;;27.42;52.61;99830.00;9474290;26;40005;-84
2023/08/17 16:33:53;;;;;;;6.70;4.30;;;;;;;27.28;53.17;99831.47;9453169;26;38724;-84
2023/08/17 16:38:09;;;;;;;6.90;4.18;;;;;;;27.33;52.54;99830.34;9473976;26;37884;-84
2023/08/17 16:42:26;;;;;;;7.35;4.10;;;;;;;27.35;52.54;99825.97;9473317;26;40098;-84
2023/08/17 16:46:43;;;;;;;8.75;4.45;;;;;;;27.12;53.28;99833.69;9453239;26;39920;-84
2023/08/17 16:51:00;;;;;;;7.82;4.10;;;;;;;27.16;53.05;99837.31;9453277;26;38519;-84
2023/08/17 16:55:18;;;;;;;8.32;4.57;;;;;;;27.10;53.27;99836.88;9473236;26;37664;-84
2023/08/17 16:59:35;;;;;;;9.20;4.35;;;;;;;26.73;53.28;99832.06;9474222;26;40044;-84
2023/08/17 17:03:52;;;;;;;6.28;4.40;;;;;;;26.86;52.74;99834.59;9475357;26;39951;-84
2023/08/17 17:08:08;;;;;;;8.23;4.50;;;;;;;27.01;53.31;99832.75;9477934;26;38042;-84
2023/08/17 17:12:25;;;;;;;10.32;4.37;;;;;;;26.96;52.97;99837.50;9477579;26;36992;-84
2023/08/17 17:16:42;;;;;;;6.85;4.62;;;;;;;26.88;52.47;99837.81;9477425;26;39398;-84
2023/08/17 17:20:59;;;;;;;6.60;4.25;;;;;;;26.81;53.41;99841.31;9478016;26;39025;-84
2023/08/17 17:25:17;;;;;;;10.18;4.60;;;;;;;26.73;53.33;99845.22;9476832;26;38466;-84
2023/08/17 17:29:34;;;;;;;6.15;4.12;;;;;;;26.80;53.11;99839.69;9477736;26;37906;-83
2023/08/17 17:33:50;;;;;;;9.15;4.85;;;;;;;26.77;53.80;99834.91;9477374;26;39414;-84
2023/08/17 17:38:07;;;;;;;8.10;4.43;;;;;;;26.57;56.13;99843.38;9477571;26;39632;-84
2023/08/17 17:42:24;;;;;;;10.60;5.75;;;;;;;26.55;56.53;99844.97;9477266;26;38883;-83
2023/08/17 17:46:41;;;;;;;8.27;4.93;;;;;;;26.59;55.30;99857.00;9456639;26;37053;-81
2023/08/17 17:50:58;;;;;;;8.20;5.00;;;;;;;26.39;57.49;99854.34;9477111;26;40181;-71
2023/08/17 17:55:14;;;;;;;8.45;5.28;;;;;;;26.27;58.20;99853.72;9477252;26;40001;-72
2023/08/17 17:59:31;;;;;;;12.07;5.25;;;;;;;26.50;57.49;99848.09;9477573;26;37667;-72
2023/08/17 18:03:50;;;;;;;8.95;4.78;;;;;;;26.47;56.27;99849.63;9477530;26;37239;-70
2023/08/17 18:08:10;;;;;;;7.47;4.18;;;;;;;26.31;56.68;99857.41;9457493;26;37886;-71
2023/08/17 18:12:30;;;;;;;8.40;4.93;;;;;;;26.23;56.37;99850.88;9477534;26;38379;-72
2023/08/17 18:16:50;;;;;;;12.88;5.43;;;;;;;26.15;56.49;99854.78;9474737;26;37866;-84
2023/08/17 18:21:08;;;;;;;9.43;4.80;;;;;;;26.06;57.17;99863.44;9455060;26;36848;-84
2023/08/17 18:25:29;;;;;;;16.33;8.55;;;;;;;25.94;58.09;99860.78;9474674;26;39094;-85
2023/08/17 18:29:48;;;;;;;18.40;10.80;;;;;;;25.85;58.20;99853.50;9474329;26;39928;-84
2023/08/17 18:34:07;;;;;;;16.75;8.02;;;;;;;25.82;57.92;99859.03;9474551;26;37965;-84
2023/08/17 18:38:25;;;;;;;30.70;18.02;;;;;;;25.66;57.72;99867.50;9474924;26;37713;-83
2023/08/17 18:42:41;;;;;;;13.18;7.32;;;;;;;25.64;57.96;99878.25;9454208;26;40083;-84
2023/08/17 18:46:57;;;;;;;12.18;6.45;;;;;;;25.62;57.85;99880.59;9474386;26;40774;-84
2023/08/17 18:51:14;;;;;;;12.75;8.00;;;;;;;25.61;57.92;99877.03;9470715;26;38686;-82
2023/08/17 18:55:31;;;;;;;12.40;7.28;;;;;;;25.55;58.27;99878.50;9472026;26;38113;-82
2023/08/17 18:59:48;;;;;;;10.60;5.60;;;;;;;25.50;58.35;99889.97;9473485;26;40085;-85
2023/08/17 19:04:04;;;;;;;11.68;5.12;;;;;;;25.49;58.48;99900.31;9473713;26;40033;-85
2023/08/17 19:08:21;;;;;;;12.18;6.50;;;;;;;25.36;59.39;99910.03;9474029;26;37808;-88
2023/08/17 19:12:37;;;;;;;10.63;5.90;;;;;;;25.41;59.12;99901.37;9474103;26;37126;-83
2023/08/17 19:16:54;;;;;;;9.85;5.22;;;;;;;25.31;59.53;99890.81;9473465;26;40188;-81
2023/08/17 19:21:11;;;;;;;9.27;5.32;;;;;;;25.19;60.06;99888.16;9473828;26;40671;-81
2023/08/17 19:25:27;;;;;;;7.82;5.22;;;;;;;25.19;59.78;99888.94;9472934;26;38099;-81
2023/08/17 19:29:43;;;;;;;8.32;4.72;;;;;;;25.19;59.74;99883.38;9473446;26;37194;-82
2023/08/17 19:34:00;;;;;;;8.60;5.15;;;;;;;25.09;60.23;99882.00;9473295;26;40893;-83
2023/08/17 19:38:16;;;;;;;9.15;5.28;;;;;;;25.22;59.59;99887.41;9473645;26;40745;-83
2023/08/17 19:42:32;;;;;;;10.10;5.30;;;;;;;25.28;59.33;99883.16;9473802;26;37583;-82
2023/08/17 19:46:48;;;;;;;10.95;5.20;;;;;;;25.34;59.24;99884.50;9473198;26;37948;-82
2023/08/17 19:51:05;;;;;;;9.70;4.97;;;;;;;25.21;59.71;99885.78;9452644;26;39036;-82
2023/08/17 19:55:21;;;;;;;9.70;4.85;;;;;;;24.85;60.92;99891.47;9472995;26;39610;-82
2023/08/17 19:59:37;;;;;;;13.70;5.25;;;;;;;24.96;60.41;99888.91;9473795;26;38024;-83